sensor_id;sensor_type;location;lat;lon;timestamp;P1;durP1;ratioP1;P2;durP2;ratioP2
60935;SDS011;46804;51.786;19.520;2023-05-02T00:02:32;7.97;;;3.90;;
60935;SDS011;46804;51.786;19.520;2023-05-02T00:06:33;9.02;;;4.10;;
60935;SDS011;46804;51.786;19.520;2023-05-02T00:10:34;9.65;;;3.85;;
60935;SDS011;46804;51.786;19.520;2023-05-02T00:14:35;10.98;;;4.18;;
60935;SDS011;46804;51.786;19.520;2023-05-02T00:18:36;6.75;;;3.65;;
60935;SDS011;46804;51.786;19.520;2023-05-02T00:22:36;8.50;;;3.60;;
60935;SDS011;46804;51.786;19.520;2023-05-02T00:26:37;9.27;;;4.13;;
60935;SDS011;46804;51.786;19.520;2023-05-02T00:30:42;9.05;;;3.95;;
60935;SDS011;46804;51.786;19.520;2023-05-02T00:34:44;8.25;;;3.70;;
60935;SDS011;46804;51.786;19.520;2023-05-02T00:38:45;8.38;;;3.33;;
60935;SDS011;46804;51.786;19.520;2023-05-02T00:42:45;15.35;;;4.45;;
60935;SDS011;46804;51.786;19.520;2023-05-02T00:46:46;7.03;;;4.15;;
60935;SDS011;46804;51.786;19.520;2023-05-02T00:50:47;11.70;;;3.75;;
60935;SDS011;46804;51.786;19.520;2023-05-02T00:54:48;8.02;;;3.83;;
60935;SDS011;46804;51.786;19.520;2023-05-02T00:58:48;11.73;;;4.03;;
60935;SDS011;46804;51.786;19.520;2023-05-02T01:02:56;8.00;;;3.78;;
60935;SDS011;46804;51.786;19.520;2023-05-02T01:07:14;8.80;;;3.63;;
60935;SDS011;46804;51.786;19.520;2023-05-02T01:11:30;7.40;;;4.00;;
60935;SDS011;46804;51.786;19.520;2023-05-02T01:15:32;6.78;;;3.65;;
60935;SDS011;46804;51.786;19.520;2023-05-02T01:19:37;7.97;;;4.05;;
60935;SDS011;46804;51.786;19.520;2023-05-02T01:24:48;9.63;;;4.32;;
60935;SDS011;46804;51.786;19.520;2023-05-02T01:32:38;10.07;;;4.20;;
60935;SDS011;46804;51.786;19.520;2023-05-02T01:36:41;9.77;;;4.07;;
60935;SDS011;46804;51.786;19.520;2023-05-02T01:40:44;9.70;;;4.57;;
60935;SDS011;46804;51.786;19.520;2023-05-02T01:44:46;8.57;;;4.28;;
60935;SDS011;46804;51.786;19.520;2023-05-02T01:48:48;6.40;;;3.67;;
60935;SDS011;46804;51.786;19.520;2023-05-02T01:52:52;10.13;;;3.65;;
60935;SDS011;46804;51.786;19.520;2023-05-02T01:56:54;9.07;;;4.20;;
60935;SDS011;46804;51.786;19.520;2023-05-02T02:00:56;10.23;;;4.72;;
60935;SDS011;46804;51.786;19.520;2023-05-02T02:04:59;6.60;;;4.28;;
60935;SDS011;46804;51.786;19.520;2023-05-02T02:09:01;8.47;;;4.20;;
60935;SDS011;46804;51.786;19.520;2023-05-02T02:13:05;9.13;;;3.95;;
60935;SDS011;46804;51.786;19.520;2023-05-02T02:17:25;7.53;;;4.13;;
60935;SDS011;46804;51.786;19.520;2023-05-02T02:21:31;9.23;;;4.53;;
60935;SDS011;46804;51.786;19.520;2023-05-02T02:25:34;9.85;;;4.47;;
60935;SDS011;46804;51.786;19.520;2023-05-02T02:29:36;8.40;;;3.95;;
60935;SDS011;46804;51.786;19.520;2023-05-02T02:33:36;6.38;;;3.55;;
60935;SDS011;46804;51.786;19.520;2023-05-02T02:37:39;8.80;;;4.45;;
60935;SDS011;46804;51.786;19.520;2023-05-02T02:41:57;8.30;;;4.15;;
60935;SDS011;46804;51.786;19.520;2023-05-02T02:46:11;10.25;;;4.28;;
60935;SDS011;46804;51.786;19.520;2023-05-02T02:50:30;11.85;;;4.55;;
60935;SDS011;46804;51.786;19.520;2023-05-02T02:54:45;9.02;;;4.32;;
60935;SDS011;46804;51.786;19.520;2023-05-02T03:03:27;6.88;;;4.00;;
60935;SDS011;46804;51.786;19.520;2023-05-02T03:07:29;7.20;;;4.07;;
60935;SDS011;46804;51.786;19.520;2023-05-02T03:11:30;9.30;;;5.13;;
60935;SDS011;46804;51.786;19.520;2023-05-02T03:19:35;12.63;;;4.90;;
60935;SDS011;46804;51.786;19.520;2023-05-02T03:23:36;12.20;;;4.60;;
60935;SDS011;46804;51.786;19.520;2023-05-02T03:27:37;10.27;;;4.78;;
60935;SDS011;46804;51.786;19.520;2023-05-02T03:31:37;12.35;;;4.20;;
60935;SDS011;46804;51.786;19.520;2023-05-02T03:35:38;9.05;;;4.50;;
60935;SDS011;46804;51.786;19.520;2023-05-02T03:39:39;11.38;;;4.43;;
60935;SDS011;46804;51.786;19.520;2023-05-02T03:43:40;6.70;;;4.38;;
60935;SDS011;46804;51.786;19.520;2023-05-02T03:47:40;7.93;;;4.18;;
60935;SDS011;46804;51.786;19.520;2023-05-02T03:51:41;10.55;;;4.22;;
60935;SDS011;46804;51.786;19.520;2023-05-02T03:55:42;7.32;;;4.45;;
60935;SDS011;46804;51.786;19.520;2023-05-02T03:59:42;8.32;;;4.72;;
60935;SDS011;46804;51.786;19.520;2023-05-02T04:03:45;11.73;;;4.78;;
60935;SDS011;46804;51.786;19.520;2023-05-02T04:07:45;9.38;;;5.00;;
60935;SDS011;46804;51.786;19.520;2023-05-02T04:11:46;9.73;;;5.05;;
60935;SDS011;46804;51.786;19.520;2023-05-02T04:15:47;10.00;;;5.03;;
60935;SDS011;46804;51.786;19.520;2023-05-02T04:19:48;14.98;;;4.63;;
60935;SDS011;46804;51.786;19.520;2023-05-02T04:23:48;8.50;;;4.32;;
60935;SDS011;46804;51.786;19.520;2023-05-02T04:27:49;10.20;;;4.75;;
60935;SDS011;46804;51.786;19.520;2023-05-02T04:31:50;9.63;;;4.82;;
60935;SDS011;46804;51.786;19.520;2023-05-02T04:35:51;12.45;;;5.15;;
60935;SDS011;46804;51.786;19.520;2023-05-02T04:39:52;11.15;;;4.70;;
60935;SDS011;46804;51.786;19.520;2023-05-02T04:43:53;14.52;;;5.43;;
60935;SDS011;46804;51.786;19.520;2023-05-02T04:47:53;12.13;;;5.15;;
60935;SDS011;46804;51.786;19.520;2023-05-02T04:51:54;8.70;;;5.43;;
60935;SDS011;46804;51.786;19.520;2023-05-02T04:55:55;11.50;;;5.18;;
60935;SDS011;46804;51.786;19.520;2023-05-02T04:59:56;14.25;;;5.10;;
60935;SDS011;46804;51.786;19.520;2023-05-02T05:03:57;7.68;;;4.32;;
60935;SDS011;46804;51.786;19.520;2023-05-02T05:07:58;8.70;;;4.68;;
60935;SDS011;46804;51.786;19.520;2023-05-02T05:11:58;10.27;;;4.43;;
60935;SDS011;46804;51.786;19.520;2023-05-02T05:15:59;10.13;;;4.82;;
60935;SDS011;46804;51.786;19.520;2023-05-02T05:20:00;10.10;;;5.45;;
60935;SDS011;46804;51.786;19.520;2023-05-02T05:24:00;12.10;;;5.75;;
60935;SDS011;46804;51.786;19.520;2023-05-02T05:28:01;11.35;;;4.85;;
60935;SDS011;46804;51.786;19.520;2023-05-02T05:32:02;7.88;;;4.28;;
60935;SDS011;46804;51.786;19.520;2023-05-02T05:40:08;9.52;;;4.43;;
60935;SDS011;46804;51.786;19.520;2023-05-02T05:44:09;8.43;;;3.95;;
60935;SDS011;46804;51.786;19.520;2023-05-02T05:48:10;10.23;;;4.68;;
60935;SDS011;46804;51.786;19.520;2023-05-02T05:52:10;10.65;;;3.97;;
60935;SDS011;46804;51.786;19.520;2023-05-02T05:56:11;6.90;;;3.80;;
60935;SDS011;46804;51.786;19.520;2023-05-02T06:00:13;11.82;;;5.50;;
60935;SDS011;46804;51.786;19.520;2023-05-02T06:04:15;8.95;;;4.05;;
60935;SDS011;46804;51.786;19.520;2023-05-02T06:08:16;26.65;;;10.60;;
60935;SDS011;46804;51.786;19.520;2023-05-02T06:12:16;65.10;;;29.58;;
60935;SDS011;46804;51.786;19.520;2023-05-02T06:16:17;30.17;;;14.63;;
60935;SDS011;46804;51.786;19.520;2023-05-02T06:20:18;33.30;;;16.40;;
60935;SDS011;46804;51.786;19.520;2023-05-02T06:24:19;35.67;;;20.67;;
60935;SDS011;46804;51.786;19.520;2023-05-02T06:28:20;36.78;;;16.95;;
60935;SDS011;46804;51.786;19.520;2023-05-02T06:32:21;47.75;;;18.88;;
60935;SDS011;46804;51.786;19.520;2023-05-02T06:36:21;18.90;;;7.13;;
60935;SDS011;46804;51.786;19.520;2023-05-02T06:40:22;10.82;;;4.63;;
60935;SDS011;46804;51.786;19.520;2023-05-02T06:44:23;7.95;;;4.65;;
60935;SDS011;46804;51.786;19.520;2023-05-02T06:48:24;7.80;;;4.55;;
60935;SDS011;46804;51.786;19.520;2023-05-02T06:52:24;6.68;;;3.58;;
60935;SDS011;46804;51.786;19.520;2023-05-02T06:56:25;8.80;;;4.50;;
60935;SDS011;46804;51.786;19.520;2023-05-02T07:00:26;8.02;;;4.57;;
60935;SDS011;46804;51.786;19.520;2023-05-02T07:04:27;13.02;;;4.38;;
60935;SDS011;46804;51.786;19.520;2023-05-02T07:08:27;7.75;;;4.10;;
60935;SDS011;46804;51.786;19.520;2023-05-02T07:12:28;8.55;;;4.03;;
60935;SDS011;46804;51.786;19.520;2023-05-02T07:16:29;8.05;;;4.55;;
60935;SDS011;46804;51.786;19.520;2023-05-02T07:20:29;8.02;;;4.60;;
60935;SDS011;46804;51.786;19.520;2023-05-02T07:24:30;9.98;;;4.38;;
60935;SDS011;46804;51.786;19.520;2023-05-02T07:28:31;9.82;;;4.85;;
60935;SDS011;46804;51.786;19.520;2023-05-02T07:32:32;7.35;;;4.55;;
60935;SDS011;46804;51.786;19.520;2023-05-02T07:36:32;7.57;;;4.60;;
60935;SDS011;46804;51.786;19.520;2023-05-02T07:40:33;8.05;;;4.78;;
60935;SDS011;46804;51.786;19.520;2023-05-02T07:44:34;20.00;;;8.77;;
60935;SDS011;46804;51.786;19.520;2023-05-02T07:48:36;17.67;;;8.45;;
60935;SDS011;46804;51.786;19.520;2023-05-02T07:52:36;6.90;;;4.60;;
60935;SDS011;46804;51.786;19.520;2023-05-02T07:56:37;19.80;;;9.65;;
60935;SDS011;46804;51.786;19.520;2023-05-02T08:00:38;12.95;;;6.43;;
60935;SDS011;46804;51.786;19.520;2023-05-02T08:04:39;11.95;;;6.78;;
60935;SDS011;46804;51.786;19.520;2023-05-02T08:08:40;8.48;;;5.03;;
60935;SDS011;46804;51.786;19.520;2023-05-02T08:12:41;11.30;;;5.38;;
60935;SDS011;46804;51.786;19.520;2023-05-02T08:16:42;6.05;;;4.57;;
60935;SDS011;46804;51.786;19.520;2023-05-02T08:20:43;8.15;;;4.90;;
60935;SDS011;46804;51.786;19.520;2023-05-02T08:24:44;7.72;;;4.47;;
60935;SDS011;46804;51.786;19.520;2023-05-02T08:28:44;9.13;;;4.63;;
60935;SDS011;46804;51.786;19.520;2023-05-02T08:32:45;8.88;;;4.90;;
60935;SDS011;46804;51.786;19.520;2023-05-02T08:36:46;8.50;;;4.90;;
60935;SDS011;46804;51.786;19.520;2023-05-02T08:40:47;6.65;;;4.45;;
60935;SDS011;46804;51.786;19.520;2023-05-02T08:44:48;10.60;;;5.28;;
60935;SDS011;46804;51.786;19.520;2023-05-02T08:48:49;8.57;;;5.50;;
60935;SDS011;46804;51.786;19.520;2023-05-02T08:52:50;12.23;;;5.75;;
60935;SDS011;46804;51.786;19.520;2023-05-02T08:56:55;10.90;;;5.10;;
60935;SDS011;46804;51.786;19.520;2023-05-02T09:00:57;10.82;;;5.50;;
60935;SDS011;46804;51.786;19.520;2023-05-02T09:05:05;7.95;;;5.03;;
60935;SDS011;46804;51.786;19.520;2023-05-02T09:09:07;8.98;;;5.22;;
60935;SDS011;46804;51.786;19.520;2023-05-02T09:17:40;12.02;;;6.03;;
60935;SDS011;46804;51.786;19.520;2023-05-02T09:21:42;8.70;;;5.70;;
60935;SDS011;46804;51.786;19.520;2023-05-02T09:25:43;12.35;;;5.93;;
60935;SDS011;46804;51.786;19.520;2023-05-02T09:29:44;13.75;;;6.30;;
60935;SDS011;46804;51.786;19.520;2023-05-02T09:33:46;8.90;;;5.93;;
60935;SDS011;46804;51.786;19.520;2023-05-02T09:37:47;11.50;;;6.35;;
60935;SDS011;46804;51.786;19.520;2023-05-02T09:41:48;10.55;;;5.63;;
60935;SDS011;46804;51.786;19.520;2023-05-02T09:45:55;9.70;;;5.93;;
60935;SDS011;46804;51.786;19.520;2023-05-02T09:49:57;12.50;;;5.95;;
60935;SDS011;46804;51.786;19.520;2023-05-02T09:53:58;12.27;;;6.47;;
60935;SDS011;46804;51.786;19.520;2023-05-02T09:57:58;9.82;;;5.70;;
60935;SDS011;46804;51.786;19.520;2023-05-02T10:02:01;9.48;;;5.43;;
60935;SDS011;46804;51.786;19.520;2023-05-02T10:06:04;8.13;;;5.37;;
60935;SDS011;46804;51.786;19.520;2023-05-02T10:10:09;9.15;;;5.43;;
60935;SDS011;46804;51.786;19.520;2023-05-02T10:14:16;7.63;;;4.75;;
60935;SDS011;46804;51.786;19.520;2023-05-02T10:23:03;10.23;;;5.47;;
60935;SDS011;46804;51.786;19.520;2023-05-02T10:27:05;12.07;;;5.78;;
60935;SDS011;46804;51.786;19.520;2023-05-02T10:31:08;12.13;;;4.82;;
60935;SDS011;46804;51.786;19.520;2023-05-02T10:35:10;10.10;;;5.25;;
60935;SDS011;46804;51.786;19.520;2023-05-02T10:39:11;8.25;;;4.88;;
60935;SDS011;46804;51.786;19.520;2023-05-02T10:43:13;8.13;;;4.25;;
60935;SDS011;46804;51.786;19.520;2023-05-02T10:47:19;8.27;;;4.93;;
60935;SDS011;46804;51.786;19.520;2023-05-02T10:51:26;7.90;;;4.55;;
60935;SDS011;46804;51.786;19.520;2023-05-02T10:55:28;7.95;;;4.97;;
60935;SDS011;46804;51.786;19.520;2023-05-02T10:59:30;9.63;;;4.88;;
60935;SDS011;46804;51.786;19.520;2023-05-02T11:25:32;10.98;;;5.43;;
60935;SDS011;46804;51.786;19.520;2023-05-02T11:34:06;7.95;;;5.50;;
60935;SDS011;46804;51.786;19.520;2023-05-02T11:38:10;8.77;;;5.13;;
60935;SDS011;46804;51.786;19.520;2023-05-02T11:42:26;7.65;;;4.97;;
60935;SDS011;46804;51.786;19.520;2023-05-02T11:46:29;11.38;;;5.65;;
60935;SDS011;46804;51.786;19.520;2023-05-02T11:50:30;10.98;;;5.38;;
60935;SDS011;46804;51.786;19.520;2023-05-02T11:54:31;7.63;;;5.30;;
60935;SDS011;46804;51.786;19.520;2023-05-02T11:58:31;10.07;;;5.45;;
60935;SDS011;46804;51.786;19.520;2023-05-02T12:02:37;11.65;;;5.78;;
60935;SDS011;46804;51.786;19.520;2023-05-02T12:06:54;9.20;;;5.90;;
60935;SDS011;46804;51.786;19.520;2023-05-02T12:10:56;15.02;;;6.35;;
60935;SDS011;46804;51.786;19.520;2023-05-02T12:15:02;11.23;;;6.47;;
60935;SDS011;46804;51.786;19.520;2023-05-02T12:19:03;9.82;;;5.78;;
60935;SDS011;46804;51.786;19.520;2023-05-02T12:23:05;10.93;;;6.30;;
60935;SDS011;46804;51.786;19.520;2023-05-02T12:27:13;9.85;;;6.10;;
60935;SDS011;46804;51.786;19.520;2023-05-02T12:31:14;10.15;;;6.30;;
60935;SDS011;46804;51.786;19.520;2023-05-02T12:35:21;10.57;;;6.13;;
60935;SDS011;46804;51.786;19.520;2023-05-02T12:39:33;12.00;;;5.93;;
60935;SDS011;46804;51.786;19.520;2023-05-02T12:43:44;9.00;;;6.20;;
60935;SDS011;46804;51.786;19.520;2023-05-02T12:47:46;10.00;;;6.45;;
60935;SDS011;46804;51.786;19.520;2023-05-02T12:51:51;13.38;;;6.43;;
60935;SDS011;46804;51.786;19.520;2023-05-02T12:56:02;10.75;;;5.60;;
60935;SDS011;46804;51.786;19.520;2023-05-02T13:00:03;13.23;;;6.60;;
60935;SDS011;46804;51.786;19.520;2023-05-02T13:04:04;11.77;;;6.28;;
60935;SDS011;46804;51.786;19.520;2023-05-02T13:08:05;9.70;;;6.45;;
60935;SDS011;46804;51.786;19.520;2023-05-02T13:12:06;10.05;;;5.70;;
60935;SDS011;46804;51.786;19.520;2023-05-02T13:16:07;10.65;;;6.10;;
60935;SDS011;46804;51.786;19.520;2023-05-02T13:20:08;8.25;;;4.72;;
60935;SDS011;46804;51.786;19.520;2023-05-02T13:24:09;8.63;;;5.20;;
60935;SDS011;46804;51.786;19.520;2023-05-02T13:28:10;12.45;;;6.30;;
60935;SDS011;46804;51.786;19.520;2023-05-02T13:32:10;9.00;;;4.70;;
60935;SDS011;46804;51.786;19.520;2023-05-02T13:36:11;11.65;;;6.38;;
60935;SDS011;46804;51.786;19.520;2023-05-02T13:40:12;10.32;;;6.50;;
60935;SDS011;46804;51.786;19.520;2023-05-02T13:44:12;14.40;;;6.40;;
60935;SDS011;46804;51.786;19.520;2023-05-02T13:48:13;9.27;;;5.85;;
60935;SDS011;46804;51.786;19.520;2023-05-02T13:52:15;17.25;;;8.10;;
60935;SDS011;46804;51.786;19.520;2023-05-02T13:56:15;15.55;;;6.65;;
60935;SDS011;46804;51.786;19.520;2023-05-02T14:00:16;9.93;;;6.38;;
60935;SDS011;46804;51.786;19.520;2023-05-02T14:04:17;12.00;;;6.32;;
60935;SDS011;46804;51.786;19.520;2023-05-02T14:08:18;11.23;;;7.25;;
60935;SDS011;46804;51.786;19.520;2023-05-02T14:12:18;11.07;;;7.05;;
60935;SDS011;46804;51.786;19.520;2023-05-02T14:16:19;12.80;;;7.07;;
60935;SDS011;46804;51.786;19.520;2023-05-02T14:20:20;12.80;;;7.07;;
60935;SDS011;46804;51.786;19.520;2023-05-02T14:24:22;38.57;;;17.27;;
60935;SDS011;46804;51.786;19.520;2023-05-02T14:28:23;9.63;;;6.10;;
60935;SDS011;46804;51.786;19.520;2023-05-02T14:32:24;49.40;;;25.25;;
60935;SDS011;46804;51.786;19.520;2023-05-02T14:36:24;22.40;;;11.05;;
60935;SDS011;46804;51.786;19.520;2023-05-02T14:40:26;11.80;;;6.90;;
60935;SDS011;46804;51.786;19.520;2023-05-02T14:44:27;15.38;;;8.32;;
60935;SDS011;46804;51.786;19.520;2023-05-02T14:48:28;12.07;;;7.68;;
60935;SDS011;46804;51.786;19.520;2023-05-02T14:52:28;10.55;;;6.88;;
60935;SDS011;46804;51.786;19.520;2023-05-02T14:56:29;9.50;;;6.72;;
60935;SDS011;46804;51.786;19.520;2023-05-02T15:00:32;10.38;;;6.72;;
60935;SDS011;46804;51.786;19.520;2023-05-02T15:04:34;10.00;;;6.47;;
60935;SDS011;46804;51.786;19.520;2023-05-02T15:08:35;11.38;;;7.22;;
60935;SDS011;46804;51.786;19.520;2023-05-02T15:12:36;10.48;;;5.50;;
60935;SDS011;46804;51.786;19.520;2023-05-02T15:16:37;11.27;;;6.13;;
60935;SDS011;46804;51.786;19.520;2023-05-02T15:20:38;10.18;;;5.40;;
60935;SDS011;46804;51.786;19.520;2023-05-02T15:24:39;9.98;;;6.00;;
60935;SDS011;46804;51.786;19.520;2023-05-02T15:28:40;12.13;;;5.75;;
60935;SDS011;46804;51.786;19.520;2023-05-02T15:32:40;13.23;;;7.07;;
60935;SDS011;46804;51.786;19.520;2023-05-02T15:36:41;12.88;;;6.15;;
60935;SDS011;46804;51.786;19.520;2023-05-02T15:40:42;12.52;;;6.28;;
60935;SDS011;46804;51.786;19.520;2023-05-02T15:44:43;11.80;;;6.05;;
60935;SDS011;46804;51.786;19.520;2023-05-02T15:48:44;9.27;;;5.72;;
60935;SDS011;46804;51.786;19.520;2023-05-02T15:52:45;9.52;;;5.47;;
60935;SDS011;46804;51.786;19.520;2023-05-02T15:56:45;9.30;;;4.80;;
60935;SDS011;46804;51.786;19.520;2023-05-02T16:00:47;11.27;;;4.55;;
60935;SDS011;46804;51.786;19.520;2023-05-02T16:04:48;9.05;;;5.07;;
60935;SDS011;46804;51.786;19.520;2023-05-02T16:08:48;6.55;;;4.18;;
60935;SDS011;46804;51.786;19.520;2023-05-02T16:12:49;7.88;;;4.05;;
60935;SDS011;46804;51.786;19.520;2023-05-02T16:16:50;7.95;;;4.35;;
60935;SDS011;46804;51.786;19.520;2023-05-02T16:20:50;27.27;;;5.53;;
60935;SDS011;46804;51.786;19.520;2023-05-02T16:24:52;9.15;;;4.38;;
60935;SDS011;46804;51.786;19.520;2023-05-02T16:28:52;7.22;;;4.25;;
60935;SDS011;46804;51.786;19.520;2023-05-02T16:32:53;6.03;;;3.67;;
60935;SDS011;46804;51.786;19.520;2023-05-02T16:36:54;8.10;;;4.07;;
60935;SDS011;46804;51.786;19.520;2023-05-02T16:40:55;5.80;;;4.00;;
60935;SDS011;46804;51.786;19.520;2023-05-02T16:44:56;4.65;;;2.95;;
60935;SDS011;46804;51.786;19.520;2023-05-02T16:48:57;7.80;;;3.35;;
60935;SDS011;46804;51.786;19.520;2023-05-02T16:52:58;6.32;;;3.25;;
60935;SDS011;46804;51.786;19.520;2023-05-02T16:56:59;5.05;;;3.47;;
60935;SDS011;46804;51.786;19.520;2023-05-02T17:01:02;5.30;;;3.22;;
60935;SDS011;46804;51.786;19.520;2023-05-02T17:05:03;7.50;;;4.07;;
60935;SDS011;46804;51.786;19.520;2023-05-02T17:09:03;5.35;;;3.80;;
60935;SDS011;46804;51.786;19.520;2023-05-02T17:13:05;9.40;;;4.82;;
60935;SDS011;46804;51.786;19.520;2023-05-02T17:17:07;7.68;;;4.40;;
60935;SDS011;46804;51.786;19.520;2023-05-02T17:21:08;5.57;;;4.30;;
60935;SDS011;46804;51.786;19.520;2023-05-02T17:25:09;7.40;;;4.47;;
60935;SDS011;46804;51.786;19.520;2023-05-02T17:33:13;6.95;;;4.40;;
60935;SDS011;46804;51.786;19.520;2023-05-02T17:37:14;8.75;;;4.72;;
60935;SDS011;46804;51.786;19.520;2023-05-02T17:41:15;7.50;;;4.78;;
60935;SDS011;46804;51.786;19.520;2023-05-02T17:45:16;6.63;;;4.53;;
60935;SDS011;46804;51.786;19.520;2023-05-02T17:49:17;6.80;;;4.80;;
60935;SDS011;46804;51.786;19.520;2023-05-02T17:53:18;7.00;;;4.60;;
60935;SDS011;46804;51.786;19.520;2023-05-02T17:57:18;6.90;;;4.63;;
60935;SDS011;46804;51.786;19.520;2023-05-02T18:01:19;7.50;;;4.57;;
60935;SDS011;46804;51.786;19.520;2023-05-02T18:05:20;9.82;;;4.82;;
60935;SDS011;46804;51.786;19.520;2023-05-02T18:09:21;8.10;;;5.30;;
60935;SDS011;46804;51.786;19.520;2023-05-02T18:13:22;9.65;;;5.60;;
60935;SDS011;46804;51.786;19.520;2023-05-02T18:17:23;12.65;;;5.95;;
60935;SDS011;46804;51.786;19.520;2023-05-02T18:21:23;12.40;;;5.10;;
60935;SDS011;46804;51.786;19.520;2023-05-02T18:25:25;8.95;;;5.68;;
60935;SDS011;46804;51.786;19.520;2023-05-02T18:29:25;10.70;;;6.55;;
60935;SDS011;46804;51.786;19.520;2023-05-02T18:33:26;12.57;;;6.18;;
60935;SDS011;46804;51.786;19.520;2023-05-02T18:37:27;7.32;;;5.28;;
60935;SDS011;46804;51.786;19.520;2023-05-02T18:41:30;9.10;;;5.45;;
60935;SDS011;46804;51.786;19.520;2023-05-02T18:45:31;8.63;;;5.63;;
60935;SDS011;46804;51.786;19.520;2023-05-02T18:49:32;7.68;;;5.30;;
60935;SDS011;46804;51.786;19.520;2023-05-02T18:53:33;11.35;;;5.43;;
60935;SDS011;46804;51.786;19.520;2023-05-02T18:57:34;10.65;;;5.85;;
60935;SDS011;46804;51.786;19.520;2023-05-02T19:01:35;10.13;;;5.78;;
60935;SDS011;46804;51.786;19.520;2023-05-02T19:05:37;9.30;;;5.80;;
60935;SDS011;46804;51.786;19.520;2023-05-02T19:09:39;14.47;;;6.53;;
60935;SDS011;46804;51.786;19.520;2023-05-02T19:13:39;10.52;;;6.00;;
60935;SDS011;46804;51.786;19.520;2023-05-02T19:17:40;11.57;;;5.43;;
60935;SDS011;46804;51.786;19.520;2023-05-02T19:21:42;9.82;;;5.72;;
60935;SDS011;46804;51.786;19.520;2023-05-02T19:25:44;10.02;;;5.95;;
60935;SDS011;46804;51.786;19.520;2023-05-02T19:29:46;9.32;;;5.70;;
60935;SDS011;46804;51.786;19.520;2023-05-02T19:33:46;9.40;;;6.78;;
60935;SDS011;46804;51.786;19.520;2023-05-02T19:37:51;11.45;;;5.90;;
60935;SDS011;46804;51.786;19.520;2023-05-02T19:41:51;11.35;;;5.55;;
60935;SDS011;46804;51.786;19.520;2023-05-02T19:45:54;9.98;;;5.40;;
60935;SDS011;46804;51.786;19.520;2023-05-02T19:49:54;8.93;;;5.40;;
60935;SDS011;46804;51.786;19.520;2023-05-02T19:53:55;11.30;;;5.85;;
60935;SDS011;46804;51.786;19.520;2023-05-02T19:57:58;10.68;;;5.63;;
60935;SDS011;46804;51.786;19.520;2023-05-02T20:02:00;7.53;;;5.25;;
60935;SDS011;46804;51.786;19.520;2023-05-02T20:06:01;8.80;;;5.82;;
60935;SDS011;46804;51.786;19.520;2023-05-02T20:10:01;8.68;;;5.35;;
60935;SDS011;46804;51.786;19.520;2023-05-02T20:14:02;10.35;;;5.38;;
60935;SDS011;46804;51.786;19.520;2023-05-02T20:18:03;9.45;;;4.88;;
60935;SDS011;46804;51.786;19.520;2023-05-02T20:22:04;9.30;;;4.97;;
60935;SDS011;46804;51.786;19.520;2023-05-02T20:26:05;6.95;;;4.70;;
60935;SDS011;46804;51.786;19.520;2023-05-02T20:30:06;11.00;;;4.85;;
60935;SDS011;46804;51.786;19.520;2023-05-02T20:34:08;8.38;;;4.55;;
60935;SDS011;46804;51.786;19.520;2023-05-02T20:38:08;7.68;;;4.35;;
60935;SDS011;46804;51.786;19.520;2023-05-02T20:42:09;8.40;;;4.47;;
60935;SDS011;46804;51.786;19.520;2023-05-02T20:46:11;6.55;;;4.35;;
60935;SDS011;46804;51.786;19.520;2023-05-02T20:50:12;7.82;;;3.92;;
60935;SDS011;46804;51.786;19.520;2023-05-02T20:54:13;6.80;;;4.38;;
60935;SDS011;46804;51.786;19.520;2023-05-02T20:58:14;8.60;;;4.18;;
60935;SDS011;46804;51.786;19.520;2023-05-02T21:02:16;7.95;;;4.43;;
60935;SDS011;46804;51.786;19.520;2023-05-02T21:06:17;6.50;;;4.95;;
60935;SDS011;46804;51.786;19.520;2023-05-02T21:10:20;6.90;;;4.67;;
60935;SDS011;46804;51.786;19.520;2023-05-02T21:14:22;6.65;;;4.60;;
60935;SDS011;46804;51.786;19.520;2023-05-02T21:18:23;8.10;;;4.70;;
60935;SDS011;46804;51.786;19.520;2023-05-02T21:22:24;8.43;;;4.88;;
60935;SDS011;46804;51.786;19.520;2023-05-02T21:26:26;7.85;;;4.68;;
60935;SDS011;46804;51.786;19.520;2023-05-02T21:30:27;7.50;;;4.32;;
60935;SDS011;46804;51.786;19.520;2023-05-02T21:34:27;8.65;;;5.03;;
60935;SDS011;46804;51.786;19.520;2023-05-02T21:38:28;7.65;;;4.57;;
60935;SDS011;46804;51.786;19.520;2023-05-02T21:42:29;8.73;;;4.85;;
60935;SDS011;46804;51.786;19.520;2023-05-02T21:46:30;11.38;;;4.93;;
60935;SDS011;46804;51.786;19.520;2023-05-02T21:50:30;9.27;;;5.10;;
60935;SDS011;46804;51.786;19.520;2023-05-02T21:54:32;9.20;;;5.00;;
60935;SDS011;46804;51.786;19.520;2023-05-02T21:58:33;6.93;;;4.60;;
60935;SDS011;46804;51.786;19.520;2023-05-02T22:02:34;9.80;;;4.90;;
60935;SDS011;46804;51.786;19.520;2023-05-02T22:06:35;8.90;;;5.50;;
60935;SDS011;46804;51.786;19.520;2023-05-02T22:10:40;9.13;;;4.82;;
60935;SDS011;46804;51.786;19.520;2023-05-02T22:14:41;8.88;;;5.63;;
60935;SDS011;46804;51.786;19.520;2023-05-02T22:18:43;15.05;;;5.90;;
60935;SDS011;46804;51.786;19.520;2023-05-02T22:22:43;12.50;;;5.57;;
60935;SDS011;46804;51.786;19.520;2023-05-02T22:26:44;8.43;;;5.00;;
60935;SDS011;46804;51.786;19.520;2023-05-02T22:30:49;9.57;;;4.68;;
60935;SDS011;46804;51.786;19.520;2023-05-02T22:34:50;7.00;;;4.65;;
60935;SDS011;46804;51.786;19.520;2023-05-02T22:38:50;7.55;;;4.63;;
60935;SDS011;46804;51.786;19.520;2023-05-02T22:42:51;6.25;;;3.80;;
60935;SDS011;46804;51.786;19.520;2023-05-02T22:46:52;7.38;;;4.43;;
60935;SDS011;46804;51.786;19.520;2023-05-02T22:50:52;7.32;;;3.90;;
60935;SDS011;46804;51.786;19.520;2023-05-02T22:54:53;5.93;;;3.08;;
60935;SDS011;46804;51.786;19.520;2023-05-02T22:58:54;6.25;;;3.40;;
60935;SDS011;46804;51.786;19.520;2023-05-02T23:02:55;6.47;;;3.90;;
60935;SDS011;46804;51.786;19.520;2023-05-02T23:06:56;8.63;;;3.53;;
60935;SDS011;46804;51.786;19.520;2023-05-02T23:10:56;9.20;;;3.33;;
60935;SDS011;46804;51.786;19.520;2023-05-02T23:14:57;6.20;;;3.17;;
60935;SDS011;46804;51.786;19.520;2023-05-02T23:18:57;4.72;;;2.85;;
60935;SDS011;46804;51.786;19.520;2023-05-02T23:22:58;6.35;;;3.15;;
60935;SDS011;46804;51.786;19.520;2023-05-02T23:26:59;6.15;;;2.92;;
60935;SDS011;46804;51.786;19.520;2023-05-02T23:30:59;7.57;;;3.25;;
60935;SDS011;46804;51.786;19.520;2023-05-02T23:35:01;9.80;;;3.55;;
60935;SDS011;46804;51.786;19.520;2023-05-02T23:39:02;5.63;;;3.33;;
60935;SDS011;46804;51.786;19.520;2023-05-02T23:43:04;7.13;;;3.63;;
60935;SDS011;46804;51.786;19.520;2023-05-02T23:47:06;13.32;;;3.85;;
60935;SDS011;46804;51.786;19.520;2023-05-02T23:51:07;9.45;;;4.82;;
60935;SDS011;46804;51.786;19.520;2023-05-02T23:55:08;10.27;;;5.35;;
60935;SDS011;46804;51.786;19.520;2023-05-02T23:59:10;8.30;;;4.65;;
